Flight Track Log - Related Links

Times and Time Zones

All times are in EDT time to prevent confusion due to time zone crossing. See the ULA900 flight status page for this flight to view local times or setup timezone preferences in your user account.

Time Position Orientation Groundspeed Altitude Reporting Facility
EDT Latitude Longitude Course Direction KTS MPH feet Rate Location/Type
03:09PM 41.3125 -95.9036 353° North 148 170 1,400  Level Minneapolis Center
03:09PM 41.3506 -95.9103 353° North 172 198 4,000 2,712 Climbing Minneapolis Center
03:10PM 41.3506 -95.8525 90° East 186 214 6,100 2,600 Climbing Minneapolis Center
03:10PM 41.3478 -95.8356 102° East 223 257 6,600 2,262 Climbing Minneapolis Center
03:11PM 41.3372 -95.7658 101° East 213 245 8,400 2,361 Climbing Minneapolis Center
03:12PM 41.3353 -95.7428 96° East 271 312 9,000 2,323 Climbing Minneapolis Center
03:12PM 41.3269 -95.6628 98° East 253 291 10,800 2,089 Climbing Minneapolis Center
03:13PM 41.3275 -95.5469 90° East 290 334 12,900 2,016 Climbing Minneapolis Center
03:14PM 41.3403 -95.4119 83° East 333 383 14,900 1,805 Climbing Minneapolis Center
03:15PM 41.3514 -95.2819 83° East 370 426 16,600 2,049 Climbing Minneapolis Center
03:16PM 41.3664 -95.1053 83° East 393 452 19,100 2,000 Climbing Minneapolis Center
03:17PM 41.3800 -94.9531 83° East 408 470 20,700 1,512 Climbing Minneapolis Center
03:18PM 41.3922 -94.7931 84° East 426 490 22,200 1,475 Climbing Minneapolis Center
03:20PM 41.4053 -94.6286 84° East 441 507 23,700 1,463 Climbing Minneapolis Center
03:21PM 41.4175 -94.4611 84° East 451 519 25,200 1,415 Climbing Minneapolis Center
03:22PM 41.4322 -94.2917 83° East 456 525 26,600 1,220 Climbing Minneapolis Center
03:23PM 41.4464 -94.1156 84° East 466 536 27,700 976 Climbing Minneapolis Center
03:24PM 41.4578 -93.9389 85° East 476 548 28,600 787 Climbing Minneapolis Center
03:25PM 41.4708 -93.7544 85° East 493 567 29,300 829 Climbing Minneapolis Center
03:26PM 41.4844 -93.5664 84° East 501 577 30,300 1,073 Climbing Minneapolis Center
03:27PM 41.5011 -93.3342 84° East 515 593 31,500 1,024 Climbing Minneapolis Center
03:28PM 41.5150 -93.1422 84° East 518 596 32,400 927 Climbing Minneapolis Center
03:29PM 41.5275 -92.9500 85° East 520 598 33,400 984 Climbing Minneapolis Center
03:30PM 41.5400 -92.7572 85° East 520 598 34,400 927 Climbing Minneapolis Center
03:31PM 41.5519 -92.5675 85° East 520 598 35,300 716 Climbing Minneapolis Center
03:32PM 41.5619 -92.3992 85° East 519 597 35,700 440 Climbing Chicago Center
03:33PM 41.5725 -92.2050 86° East 528 608 36,100 387 Climbing Chicago Center
03:34PM 41.5850 -92.0106 85° East 531 611 36,500 390 Climbing Chicago Center
03:35PM 41.5958 -91.8125 86° East 537 618 36,900 244 Climbing Chicago Center
03:36PM 41.6072 -91.6150 86° East 540 621 37,000 48 Climbing Chicago Center
03:37PM 41.6197 -91.3769 86° East 542 624 37,000 194 Level Chicago Center
03:38PM 41.6292 -91.1772 86° East 544 626 37,400 484 Climbing Chicago Center
03:39PM 41.6400 -90.9806 86° East 538 619 38,000 532 Climbing Chicago Center
03:40PM 41.6481 -90.7872 87° East 530 610 38,500 339 Climbing Chicago Center
03:41PM 41.6583 -90.5603 86° East 528 608 38,700 145 Climbing Chicago Center
03:42PM 41.6678 -90.3586 86° East 534 615 38,800 97 Climbing Chicago Center
03:43PM 41.6764 -90.1578 87° East 536 617 38,900 97 Climbing Chicago Center
03:44PM 41.6836 -89.9611 87° East 533 613 39,000 48 Climbing Chicago Center
03:45PM 41.6919 -89.7603 87° East 536 617 39,000  Level Chicago Center
03:46PM 41.6989 -89.5558 87° East 542 624 39,000  Level Chicago Center
03:47PM 41.7058 -89.3483 87° East 551 634 39,000  Level Chicago Center
03:48PM 41.7122 -89.1394 88° East 555 639 39,000  Level Chicago Center
03:49PM 41.7200 -88.8922 88° East 554 638 39,000  Level Chicago Center
03:50PM 41.7275 -88.6858 87° East 554 638 39,000  Level Chicago Center
03:51PM 41.7322 -88.4786 88° East 554 638 39,000  Level Chicago Center
03:52PM 41.7375 -88.2714 88° East 556 640 39,000  Level Chicago Center
03:53PM 41.7425 -88.0433 88° East 556 640 39,000  Level Chicago Center
03:54PM 41.7489 -87.8372 88° East 557 641 39,000  Level Chicago Center
03:55PM 41.7528 -87.6247 89° East 556 640 39,000  Level Chicago Center
03:56PM 41.7561 -87.4178 89° East 557 641 39,000  Level Chicago Center
03:57PM 41.7600 -87.2097 88° East 560 644 39,000  Level Chicago Center
03:58PM 41.7633 -87.0019 89° East 559 643 39,000  Level Chicago Center
03:59PM 41.7669 -86.7947 89° East 558 642 39,000  Level Chicago Center
04:00PM 41.7664 -86.5472 90° East 557 641 39,000  Level Chicago Center
04:01PM 41.7717 -86.3408 88° East 554 638 39,000  Level Chicago Center
04:03PM 41.7886 -86.1350 84° East 553 636 39,000  Level Chicago Center
04:04PM 41.8103 -85.9278 82° East 559 643 39,000  Level Chicago Center
04:05PM 41.8311 -85.7183 82° East 562 647 39,000  Level Chicago Center
04:06PM 41.8519 -85.5044 82° East 569 655 39,000  Level Chicago Center
04:07PM 41.8725 -85.2908 83° East 568 654 39,000  Level Chicago Center
04:08PM 41.8939 -85.0792 82° East 566 651 39,000  Level Chicago Center
04:09PM 41.9156 -84.8697 82° East 566 651 39,000  Level Chicago Center
04:10PM 41.9403 -84.6181 82° East 565 650 39,000  Level Chicago Center
04:11PM 41.9558 -84.4081 84° East 566 651 39,000  Level Chicago Center
04:12PM 41.9483 -84.1947 93° East 569 655 39,000  Level Chicago Center
04:13PM 41.9389 -83.9847 93° East 566 651 39,000  Level Chicago Center
04:14PM 41.9283 -83.7733 94° East 567 652 39,000  Level Chicago Center
04:15PM 41.9122 -83.4344 94° East 567 652 39,000  Level Cleveland Center
04:16PM 41.9011 -83.2225 94° East 567 652 39,000  Level Cleveland Center
04:17PM 41.8917 -83.0156 93° East 567 652 39,000  Level Cleveland Center
04:18PM 41.8800 -82.8056 94° East 567 652 39,000  Level Cleveland Center
04:19PM 41.8683 -82.5972 94° East 567 652 39,000  Level Cleveland Center
04:21PM 41.8542 -82.3464 94° East 567 652 39,000  Level Cleveland Center
04:22PM 41.8408 -82.1242 95° East 566 651 39,000  Level Cleveland Center
04:23PM 41.8283 -81.9103 94° East 566 651 39,000  Level Cleveland Center
04:24PM 41.8147 -81.6994 95° East 565 650 39,000  Level Cleveland Center
04:25PM 41.8006 -81.4889 95° East 562 647 39,000  Level Cleveland Center
04:26PM 41.7864 -81.2794 95° East 559 643 39,000  Level Cleveland Center
04:27PM 41.7719 -81.0719 95° East 557 641 39,000  Level Cleveland Center
04:28PM 41.7578 -80.8656 95° East 550 633 39,000  Level Cleveland Center
04:29PM 41.7453 -80.6603 95° East 551 634 39,000  Level Cleveland Center
04:30PM 41.7278 -80.4536 96° East 551 634 39,000  Level Cleveland Center
04:31PM 41.7094 -80.2128 96° East 553 636 39,000  Level Cleveland Center
04:32PM 41.6933 -80.0081 96° East 551 634 39,000  Level Cleveland Center
04:33PM 41.6761 -79.8031 96° East 551 634 39,000  Level Cleveland Center
04:34PM 41.6611 -79.6131 96° East 551 634 39,000  Level Cleveland Center
04:35PM 41.6411 -79.3708 96° East 550 633 39,000  Level Cleveland Center
04:36PM 41.6233 -79.1703 97° East 549 632 39,000  Level Cleveland Center
04:37PM 41.6064 -78.9672 96° East 548 631 39,000 -387 Level Cleveland Center
04:38PM 41.5881 -78.7639 97° East 549 632 38,200 -1,152 Descending Cleveland Center
04:39PM 41.5694 -78.5633 97° East 549 632 36,600 -1,632 Descending Cleveland Center
04:40PM 41.5508 -78.3681 97° East 534 615 34,800 -2,032 Descending Cleveland Center
04:41PM 41.5283 -78.1300 97° East 534 615 32,400 -1,839 Descending Cleveland Center
04:42PM 41.5069 -77.9272 98° East 547 629 31,000 -677 Descending Cleveland Center
04:43PM 41.4775 -77.7269 101° East 550 633 31,000 -48 Level Cleveland Center
04:44PM 41.4497 -77.5286 101° East 549 632 30,900 -677 Descending Cleveland Center
04:45PM 41.4211 -77.3336 101° East 543 625 29,600 -1,403 Descending Cleveland Center
04:46PM 41.3925 -77.1358 101° East 544 626 28,000 -1,742 Descending Cleveland Center
04:47PM 41.3569 -76.9008 101° East 544 626 26,000 -1,728 Descending Cleveland Center
04:48PM 41.3206 -76.7050 104° East 544 626 24,400 -1,536 Descending Cleveland Center
04:50PM 41.2689 -76.5136 110° East 550 633 22,800 -1,548 Descending Cleveland Center
04:51PM 41.2178 -76.3264 110° East 548 631 21,200 -1,619 Descending Cleveland Center
04:52PM 41.1558 -76.1033 110° East 539 620 19,400 -1,355 Descending New York Center
04:53PM 41.1111 -75.9400 110° East 529 609 18,400 -1,800 Descending New York Center
04:54PM 41.0589 -75.7489 110° East 506 582 15,800 -2,650 Descending New York Center
04:55PM 41.0117 -75.5778 110° East 494 568 13,100 -1,400 Descending New York Center
04:56PM 40.9681 -75.4208 110° East 469 540 13,000 -550 Descending New York Center
04:57PM 40.9294 -75.2836 110° East 450 518 12,000 -1,650 Descending New York Center
04:58PM 40.8892 -75.1408 110° East 425 489 9,700 -1,750 Descending New York Center
04:59PM 40.8522 -75.0094 110° East 368 423 8,500 -1,400 Descending New York Center
05:00PM 40.8189 -74.8922 111° Southeast 340 391 6,900 -1,250 Descending New York Center
05:01PM 40.7672 -74.8181 133° Southeast 313 360 6,000 -450 Descending New York Center
05:02PM 40.7033 -74.7347 135° Southeast 292 336 6,000  Level New York Center
05:03PM 40.6597 -74.6667 130° Southeast 281 323 6,000 -273 Level New York Center
05:03PM 40.6167 -74.6000 130° Southeast 257 296 5,500 -655 Descending New York TRACON
05:04PM 40.6000 -74.5167 105° East 231 266 4,800 -1,000 Descending New York TRACON
05:05PM 40.6333 -74.4667 49° Northeast 202 232 3,500 -1,400 Descending New York TRACON
05:06PM 40.6500 -74.4000 72° East 215 247 2,000 -750 Descending New York TRACON
05:07PM 40.6167 -74.3833 159° South 177 204 2,000 333 Level New York TRACON
05:09PM 40.5500 -74.4000 191° South 193 222 2,700 429 Climbing New York TRACON
05:10PM 40.5000 -74.4000 180° South 192 221 2,900 150 Climbing New York TRACON
05:11PM 40.4500 -74.4333 207° Southwest 183 211 3,000 50 Climbing New York TRACON
05:12PM 40.4167 -74.4833 229° Southwest 188 216 3,000 -50 Level New York TRACON
05:13PM 40.4167 -74.5333 270° West 195 224 2,900 -500 Descending New York TRACON
05:14PM 40.4667 -74.5000 27° Northeast 194 223 2,000 -450 Descending New York TRACON
05:15PM 40.5167 -74.4667 27° Northeast 184 212 2,000  Level New York TRACON
05:16PM 40.5667 -74.4333 27° Northeast 184 212 2,000 50 Level New York TRACON
05:17PM 40.6000 -74.4000 37° Northeast 192 221 2,100 -100 Climbing New York TRACON
05:18PM 40.6500 -74.3667 27° Northeast 197 227 1,800 -200 Descending New York TRACON
05:19PM 40.6833 -74.3167 49° Northeast 193 222 1,700 -350 Descending New York TRACON
05:20PM 40.7000 -74.2500 72° East 172 198 1,100 -650 Descending New York TRACON
05:21PM 40.7000 -74.2000 90° East 142 163 400 -700 Descending New York TRACON
05:23PM 40.6833 -74.1667 39° Northeast  Level FlightAware Approximate
05:30PM 40.6925 -74.1687 39° Northeast  Level Estimated
05:31PM 40.6925 -74.1687 39° Northeast  Level Estimated

Login

Don't have an account? Register now (free) for customized features, flight alerts, and more!